Time;durP1;ratioP1;P1;durP2;ratioP2;P2;SDS_P1;SDS_P2;PMS_P1;PMS_P2;Temp;Humidity;BMP_temperature;BMP_pressure;BME280_temperature;BME280_humidity;BME280_pressure;Samples;Min_cycle;Max_cycle;Signal;HPM_P1;HPM_P2
2023/10/19 00:01:58;;;;;;;18.40;16.55;;;;;;;8.94;86.75;99345.25;7388029;19;20367;-77
2023/10/19 00:04:25;;;;;;;18.75;16.75;;;;;;;8.94;86.89;99345.25;7388342;19;20371;-77
2023/10/19 00:06:55;;;;;;;18.30;16.50;;;;;;;8.97;86.89;99344.88;7390499;19;20360;-77
2023/10/19 00:09:22;;;;;;;18.35;16.52;;;;;;;8.93;87.06;99343.66;7391452;19;20365;-78
2023/10/19 00:11:51;;;;;;;19.35;17.25;;;;;;;8.94;87.55;99350.56;7389544;19;20785;-78
2023/10/19 00:14:18;;;;;;;18.85;16.85;;;;;;;8.93;87.36;99348.94;7389979;19;20347;-78
2023/10/19 00:16:53;;;;;;;20.23;17.15;;;;;;;8.91;87.64;99335.09;7388937;19;20434;-78
2023/10/19 00:19:20;;;;;;;20.42;17.98;;;;;;;8.91;87.75;99329.81;7389059;19;20566;-78
2023/10/19 00:21:51;;;;;;;19.98;17.88;;;;;;;8.91;88.18;99323.72;7388548;19;20361;-78
2023/10/19 00:24:22;;;;;;;18.80;16.90;;;;;;;8.87;88.11;99320.63;7393337;19;20853;-78
2023/10/19 00:26:49;;;;;;;19.90;17.80;;;;;;;8.87;88.35;99327.75;7397642;19;20651;-78
2023/10/19 00:29:32;;;;;;;19.42;17.42;;;;;;;8.86;88.10;99321.66;7395554;19;20348;-78
2023/10/19 00:32:00;;;;;;;20.17;18.08;;;;;;;8.87;88.51;99312.69;7396042;19;20700;-77
2023/10/19 00:34:28;;;;;;;19.80;17.88;;;;;;;8.88;88.84;99306.41;7397131;19;20367;-78
2023/10/19 00:36:56;;;;;;;19.75;17.75;;;;;;;8.88;88.83;99303.78;7396499;19;20461;-78
2023/10/19 00:39:24;;;;;;;20.17;18.08;;;;;;;8.87;89.12;99302.13;7395391;19;20345;-78
2023/10/19 00:41:55;;;;;;;20.20;18.30;;;;;;;8.85;89.12;99293.56;7397425;19;20690;-78
2023/10/19 00:44:25;;;;;;;21.30;19.20;;;;;;;8.85;89.22;99298.84;7397632;19;20444;-78
2023/10/19 00:47:03;;;;;;;20.30;18.40;;;;;;;8.82;89.63;99288.69;7397755;19;20340;-79
2023/10/19 00:49:31;;;;;;;20.50;18.38;;;;;;;8.80;89.88;99298.66;7393736;19;20368;-78
2023/10/19 00:52:11;;;;;;;20.40;18.35;;;;;;;8.79;89.83;99297.00;7396653;19;20370;-78
2023/10/19 00:57:19;;;;;;;21.55;19.45;;;;;;;8.74;90.55;99292.31;7396706;19;20367;-78
2023/10/19 01:02:18;;;;;;;22.38;20.17;;;;;;;8.71;90.77;99283.94;7399212;19;20711;-80
2023/10/19 01:04:50;;;;;;;22.20;20.00;;;;;;;8.71;91.08;99281.31;7399605;19;20959;-79
2023/10/19 01:07:27;;;;;;;23.42;21.10;;;;;;;8.70;91.34;99277.03;7401714;19;20353;-79
2023/10/19 01:09:59;;;;;;;22.95;20.67;;;;;;;8.69;91.56;99278.03;7403241;19;20365;-80
2023/10/19 01:12:38;;;;;;;23.45;21.02;;;;;;;8.68;91.49;99271.13;7403116;19;20385;-80
2023/10/19 01:15:13;;;;;;;24.27;21.80;;;;;;;8.67;91.79;99269.50;7408874;19;20432;-80
2023/10/19 01:17:45;;;;;;;24.85;22.45;;;;;;;8.68;91.91;99268.50;7402859;19;20351;-80
2023/10/19 01:20:20;;;;;;;24.33;21.88;;;;;;;8.68;92.10;99258.72;7403097;19;20341;-80
2023/10/19 01:22:50;;;;;;;24.30;22.00;;;;;;;8.65;92.15;99250.38;7401101;19;20885;-80
2023/10/19 01:25:17;;;;;;;25.13;22.58;;;;;;;8.63;92.30;99242.66;7400763;19;20917;-79
2023/10/19 01:27:44;;;;;;;25.90;23.25;;;;;;;8.63;92.49;99231.25;7402179;19;21430;-79
2023/10/19 01:30:13;;;;;;;24.63;22.00;;;;;;;8.61;92.70;99214.78;7398521;19;20363;-79
2023/10/19 01:32:42;;;;;;;24.13;21.80;;;;;;;8.58;93.02;99210.69;7400006;19;20496;-80
2023/10/19 01:35:09;;;;;;;24.08;21.58;;;;;;;8.54;93.11;99207.66;7399902;19;20343;-80
2023/10/19 01:37:38;;;;;;;24.10;21.73;;;;;;;8.52;93.38;99214.97;7399851;19;20468;-79
2023/10/19 01:40:07;;;;;;;24.38;22.05;;;;;;;8.53;93.53;99218.41;7399092;19;21004;-80
2023/10/19 01:42:34;;;;;;;24.52;22.17;;;;;;;8.50;93.44;99214.34;7399402;19;20406;-80
2023/10/19 01:45:01;;;;;;;24.58;21.98;;;;;;;8.52;93.63;99199.13;7401756;19;20365;-79
2023/10/19 01:47:28;;;;;;;24.13;21.75;;;;;;;8.52;93.81;99199.13;7397757;19;20356;-80
2023/10/19 01:49:55;;;;;;;23.57;21.17;;;;;;;8.51;93.83;99178.16;7398347;19;20361;-80
2023/10/19 01:52:24;;;;;;;24.15;21.73;;;;;;;8.50;94.03;99174.72;7400263;19;20383;-80
2023/10/19 01:54:58;;;;;;;24.42;22.02;;;;;;;8.48;94.14;99171.44;7401223;19;20375;-80
2023/10/19 01:57:26;;;;;;;24.35;21.92;;;;;;;8.44;94.50;99164.94;7401885;19;20349;-79
2023/10/19 01:59:52;;;;;;;25.02;22.42;;;;;;;8.41;94.50;99164.50;7397968;19;20914;-80
2023/10/19 02:02:21;;;;;;;24.20;21.83;;;;;;;8.35;94.86;99151.06;7396313;19;20432;-80
2023/10/19 02:04:51;;;;;;;24.55;22.05;;;;;;;8.32;94.96;99145.34;7397928;19;20378;-80
2023/10/19 02:07:18;;;;;;;23.98;21.52;;;;;;;8.30;94.92;99150.00;7398652;19;20377;-80
2023/10/19 02:09:46;;;;;;;24.73;22.17;;;;;;;8.24;95.43;99145.50;7398966;19;20353;-80
2023/10/19 02:12:17;;;;;;;25.13;22.52;;;;;;;8.23;95.49;99134.13;7399718;19;20849;-80
2023/10/19 02:14:44;;;;;;;25.30;22.73;;;;;;;8.21;95.99;99128.25;7399423;19;20697;-80
2023/10/19 02:17:11;;;;;;;26.30;23.52;;;;;;;8.20;96.31;99131.88;7399022;19;20755;-80
2023/10/19 02:19:38;;;;;;;26.58;23.98;;;;;;;8.17;96.33;99135.72;7397070;19;20872;-80
2023/10/19 02:22:08;;;;;;;26.83;24.17;;;;;;;8.20;96.30;99136.34;7399203;19;20357;-79
2023/10/19 02:24:35;;;;;;;27.60;24.80;;;;;;;8.19;96.36;99129.47;7397578;19;20356;-80
2023/10/19 02:27:03;;;;;;;27.27;24.48;;;;;;;8.19;96.66;99117.06;7397912;19;20424;-80
2023/10/19 02:29:31;;;;;;;27.45;24.75;;;;;;;8.21;96.66;99122.94;7397299;19;20374;-80
2023/10/19 02:32:03;;;;;;;27.23;24.53;;;;;;;8.20;96.63;99123.16;7398303;19;20924;-80
2023/10/19 02:34:31;;;;;;;27.75;24.95;;;;;;;8.22;96.67;99114.00;7394774;19;20414;-80
2023/10/19 02:36:58;;;;;;;27.85;24.88;;;;;;;8.24;96.85;99111.97;7395927;19;20342;-80
2023/10/19 02:39:28;;;;;;;28.63;25.83;;;;;;;8.28;97.05;99107.13;7395363;19;20407;-80
2023/10/19 02:41:55;;;;;;;27.80;25.00;;;;;;;8.29;96.85;99114.84;7398086;19;20392;-79
2023/10/19 02:44:23;;;;;;;27.58;24.77;;;;;;;8.32;96.70;99113.63;7395455;19;20405;-79
2023/10/19 02:46:53;;;;;;;27.77;24.95;;;;;;;8.31;96.98;99106.75;7395627;19;21111;-79
2023/10/19 02:49:22;;;;;;;27.80;25.10;;;;;;;8.31;96.83;99112.03;7396450;19;20363;-80
2023/10/19 02:51:51;;;;;;;27.45;24.75;;;;;;;8.30;96.84;99099.81;7396628;19;20344;-80
2023/10/19 02:54:20;;;;;;;28.00;25.02;;;;;;;8.30;97.10;99089.25;7396633;19;20394;-79
2023/10/19 02:56:52;;;;;;;28.75;25.90;;;;;;;8.30;97.04;99081.31;7397324;19;20465;-79
2023/10/19 02:59:23;;;;;;;27.85;25.02;;;;;;;8.31;97.15;99075.03;7397951;19;20373;-80
2023/10/19 03:02:06;;;;;;;28.05;25.10;;;;;;;8.30;97.40;99076.84;7394235;19;20404;-80
2023/10/19 03:04:36;;;;;;;28.35;25.55;;;;;;;8.30;97.40;99089.25;7394838;19;20378;-80
2023/10/19 03:07:05;;;;;;;28.13;25.13;;;;;;;8.31;97.36;99090.88;7395604;19;20386;-80
2023/10/19 03:09:36;;;;;;;28.20;25.33;;;;;;;8.30;97.47;99089.25;7394644;19;20375;-79
2023/10/19 03:12:10;;;;;;;27.73;24.80;;;;;;;8.32;97.60;99085.38;7394528;19;20361;-80
2023/10/19 03:14:43;;;;;;;28.00;25.20;;;;;;;8.33;97.55;99081.75;7403316;19;20411;-80
2023/10/19 03:17:10;;;;;;;28.35;25.55;;;;;;;8.35;97.52;99076.22;7395926;19;20358;-80
2023/10/19 03:19:38;;;;;;;28.23;25.33;;;;;;;8.36;97.72;99073.41;7394507;19;20925;-80
2023/10/19 03:22:06;;;;;;;29.50;26.50;;;;;;;8.34;97.82;99056.13;7395950;19;20430;-80
2023/10/19 03:24:36;;;;;;;29.85;25.73;;;;;;;8.36;97.72;99072.59;7396717;19;20452;-80
2023/10/19 03:27:23;;;;;;;29.10;26.10;;;;;;;8.36;97.67;99067.31;7397974;19;20365;-81
2023/10/19 03:29:55;;;;;;;29.70;26.60;;;;;;;8.37;97.74;99047.78;7396117;19;25082;-80
2023/10/19 03:32:28;;;;;;;28.33;25.35;;;;;;;8.37;97.73;99045.16;7398314;19;20394;-80
2023/10/19 03:34:56;;;;;;;28.85;25.95;;;;;;;8.37;97.78;99042.50;7397772;19;20766;-80
2023/10/19 03:37:25;;;;;;;29.63;26.73;;;;;;;8.36;97.89;99051.47;7398644;19;20376;-80
2023/10/19 03:39:56;;;;;;;29.25;26.30;;;;;;;8.35;98.04;99039.25;7397442;19;20411;-80
2023/10/19 03:42:26;;;;;;;31.30;28.10;;;;;;;8.32;98.00;99035.19;7398674;19;20346;-80
2023/10/19 03:44:53;;;;;;;30.27;27.17;;;;;;;8.32;98.18;99037.03;7398227;19;20409;-80
2023/10/19 03:47:25;;;;;;;30.70;27.47;;;;;;;8.32;98.17;99031.75;7397283;19;21622;-80
2023/10/19 03:49:53;;;;;;;30.23;27.23;;;;;;;8.30;98.70;99037.22;7396201;19;20458;-80
2023/10/19 03:52:20;;;;;;;31.10;28.00;;;;;;;8.29;98.73;99025.03;7399114;19;20321;-80
2023/10/19 03:54:49;;;;;;;30.90;27.77;;;;;;;8.27;98.40;99028.91;7395349;19;20390;-79
2023/10/19 03:57:25;;;;;;;30.08;27.08;;;;;;;8.25;98.64;99030.91;7394456;19;20348;-80
2023/10/19 03:59:58;;;;;;;30.00;26.98;;;;;;;8.24;98.98;99031.91;7393865;19;20456;-79
2023/10/19 04:02:27;;;;;;;30.85;27.65;;;;;;;8.22;98.99;99023.38;7393375;19;20691;-79
2023/10/19 04:04:57;;;;;;;31.30;27.80;;;;;;;8.20;99.07;99017.47;7395017;19;20380;-80
2023/10/19 04:07:30;;;;;;;30.42;27.33;;;;;;;8.18;99.41;99015.03;7398369;19;20375;-80
2023/10/19 04:10:04;;;;;;;29.58;26.67;;;;;;;8.17;99.31;99008.94;7395833;19;20374;-80
2023/10/19 04:12:31;;;;;;;29.95;27.02;;;;;;;8.16;99.55;99009.97;7395534;19;20365;-80
2023/10/19 04:15:21;;;;;;;29.23;26.30;;;;;;;8.14;99.45;99008.56;7395427;19;20340;-80
2023/10/19 04:17:48;;;;;;;29.30;26.40;;;;;;;8.14;99.68;99011.19;7398091;19;20384;-81
2023/10/19 04:22:50;;;;;;;29.03;26.13;;;;;;;8.14;99.69;98998.00;7397069;19;20381;-80
2023/10/19 04:25:19;;;;;;;30.02;27.08;;;;;;;8.14;99.89;99006.72;7397682;19;20340;-80
2023/10/19 04:27:48;;;;;;;29.27;26.27;;;;;;;8.14;99.89;98996.16;7397007;19;20845;-80
2023/10/19 04:30:16;;;;;;;28.92;26.02;;;;;;;8.14;99.71;98995.34;7396528;19;20331;-80
2023/10/19 04:32:44;;;;;;;28.75;25.83;;;;;;;8.14;99.95;98990.88;7399099;19;20360;-80
2023/10/19 04:35:21;;;;;;;28.80;25.73;;;;;;;8.13;99.90;98997.16;7397614;19;20834;-79
2023/10/19 04:37:50;;;;;;;28.60;25.70;;;;;;;8.13;100.00;98983.94;7395723;19;20345;-78
2023/10/19 04:40:18;;;;;;;28.23;25.43;;;;;;;8.14;100.00;98993.50;7394613;19;20750;-79
2023/10/19 04:42:46;;;;;;;28.80;25.90;;;;;;;8.14;100.00;98992.72;7395031;19;20940;-79
2023/10/19 04:45:13;;;;;;;29.40;26.50;;;;;;;8.15;100.00;98987.19;7397537;19;20749;-80
2023/10/19 04:47:40;;;;;;;29.20;26.13;;;;;;;8.16;100.00;98994.13;7395987;19;20350;-80
2023/10/19 04:50:08;;;;;;;28.88;26.05;;;;;;;8.16;100.00;98995.97;7395072;19;20420;-79
2023/10/19 04:52:38;;;;;;;28.17;25.25;;;;;;;8.16;100.00;98982.75;7395042;19;20344;-80
2023/10/19 04:55:05;;;;;;;27.20;24.50;;;;;;;8.15;100.00;98987.19;7395526;19;20345;-80
2023/10/19 04:57:32;;;;;;;26.75;24.15;;;;;;;8.14;100.00;98980.31;7391689;19;20690;-79
2023/10/19 05:00:00;;;;;;;27.38;24.70;;;;;;;8.10;100.00;98971.16;7394575;19;20416;-80
2023/10/19 05:02:26;;;;;;;25.55;23.05;;;;;;;8.10;100.00;98979.09;7390896;19;20364;-80
2023/10/19 05:04:54;;;;;;;26.08;23.48;;;;;;;8.10;100.00;98975.63;7394232;19;20431;-80
2023/10/19 05:07:21;;;;;;;25.07;22.57;;;;;;;8.10;100.00;98973.00;7393019;19;20353;-79
2023/10/19 05:09:48;;;;;;;24.58;22.13;;;;;;;8.09;100.00;98971.34;7398722;19;20356;-79
2023/10/19 05:12:15;;;;;;;24.73;22.23;;;;;;;8.09;100.00;98958.94;7407381;19;20364;-79
2023/10/19 05:14:42;;;;;;;23.77;21.48;;;;;;;8.10;100.00;98957.16;7413427;19;20375;-80
2023/10/19 05:17:10;;;;;;;22.52;20.42;;;;;;;8.08;100.00;98954.69;7403016;19;20340;-79
2023/10/19 05:19:38;;;;;;;22.23;20.13;;;;;;;8.09;100.00;98947.59;7402530;19;20345;-79
2023/10/19 05:22:08;;;;;;;21.88;19.88;;;;;;;8.08;100.00;98952.06;7403704;19;20708;-80
2023/10/19 05:24:35;;;;;;;21.60;19.60;;;;;;;8.10;100.00;98952.69;7410279;19;20885;-80
2023/10/19 05:27:03;;;;;;;20.88;18.98;;;;;;;8.10;100.00;98950.03;7415459;19;20323;-80
2023/10/19 05:29:33;;;;;;;20.38;18.48;;;;;;;8.09;100.00;98951.03;7413844;19;20371;-79
2023/10/19 05:32:00;;;;;;;19.05;17.25;;;;;;;8.10;100.00;98957.16;7405735;19;20415;-80
2023/10/19 05:34:29;;;;;;;18.23;16.52;;;;;;;8.10;100.00;98957.97;7398965;19;20349;-80
2023/10/19 05:37:01;;;;;;;17.73;16.13;;;;;;;8.09;100.00;98956.31;7399356;19;20343;-79
2023/10/19 05:39:31;;;;;;;17.77;16.08;;;;;;;8.09;100.00;98953.66;7398917;19;20679;-80
2023/10/19 05:42:00;;;;;;;17.45;15.85;;;;;;;8.09;100.00;98956.31;7396577;19;20357;-80
2023/10/19 05:44:31;;;;;;;17.27;15.68;;;;;;;8.10;100.00;98955.31;7399170;19;20383;-79
2023/10/19 05:46:59;;;;;;;17.25;15.57;;;;;;;8.10;100.00;98973.81;7398724;19;20352;-80
2023/10/19 05:49:28;;;;;;;16.92;15.35;;;;;;;8.12;100.00;98969.13;7398272;19;20345;-80
2023/10/19 05:51:56;;;;;;;16.42;14.93;;;;;;;8.12;100.00;98963.84;7398215;19;20861;-80
2023/10/19 05:54:23;;;;;;;16.42;14.93;;;;;;;8.13;100.00;98962.81;7400424;19;20856;-80
2023/10/19 05:56:51;;;;;;;17.13;15.52;;;;;;;8.14;100.00;98975.03;7400632;19;20344;-80
2023/10/19 05:59:18;;;;;;;16.77;15.27;;;;;;;8.14;100.00;98974.22;7400562;19;20408;-80
2023/10/19 06:01:48;;;;;;;16.95;15.40;;;;;;;8.14;100.00;98972.38;7399267;19;20371;-80
2023/10/19 06:04:16;;;;;;;16.70;15.20;;;;;;;8.14;100.00;98976.88;7402425;19;20391;-80
2023/10/19 06:06:48;;;;;;;16.13;14.67;;;;;;;8.13;100.00;98973.38;7396943;19;20383;-80
2023/10/19 06:09:16;;;;;;;16.20;14.70;;;;;;;8.15;100.00;98973.19;7399508;19;20928;-80
2023/10/19 06:11:45;;;;;;;17.42;15.73;;;;;;;8.14;100.00;98971.59;7400013;19;20677;-80
2023/10/19 06:14:12;;;;;;;16.50;15.00;;;;;;;8.15;100.00;98974.00;7398781;19;20345;-80
2023/10/19 06:16:39;;;;;;;15.98;14.48;;;;;;;8.16;100.00;98980.91;7401412;19;20344;-80
2023/10/19 06:19:06;;;;;;;15.75;14.35;;;;;;;8.18;100.00;98975.41;7398188;19;20360;-80
2023/10/19 06:21:34;;;;;;;15.15;13.75;;;;;;;8.16;100.00;98975.63;7395029;19;20455;-80
2023/10/19 06:24:02;;;;;;;14.65;13.35;;;;;;;8.19;100.00;98973.63;7398225;19;20723;-80
2023/10/19 06:26:30;;;;;;;14.68;13.27;;;;;;;8.20;100.00;98972.59;7399825;19;20320;-80
2023/10/19 06:28:58;;;;;;;13.80;12.50;;;;;;;8.18;100.00;98964.84;7399968;19;20361;-80
2023/10/19 06:31:28;;;;;;;14.30;13.00;;;;;;;8.19;100.00;98965.69;7396873;19;20375;-80
2023/10/19 06:34:00;;;;;;;14.32;13.02;;;;;;;8.16;100.00;98957.16;7401869;19;20353;-80
2023/10/19 06:36:29;;;;;;;13.80;12.50;;;;;;;8.17;100.00;98971.97;7398505;19;20865;-80
2023/10/19 06:38:56;;;;;;;14.23;12.93;;;;;;;8.16;100.00;98972.19;7397353;19;20378;-79
2023/10/19 06:41:23;;;;;;;14.07;12.77;;;;;;;8.15;100.00;98974.00;7395982;19;20367;-80
2023/10/19 06:43:50;;;;;;;13.30;12.15;;;;;;;8.16;100.00;98966.91;7396099;19;20344;-79
2023/10/19 06:46:17;;;;;;;14.40;13.10;;;;;;;8.19;100.00;98968.31;7397547;19;20374;-81
2023/10/19 06:48:44;;;;;;;13.50;12.30;;;;;;;8.17;100.00;98964.03;7397619;19;21006;-79
2023/10/19 06:51:11;;;;;;;13.48;12.27;;;;;;;8.16;100.00;98954.50;7395249;19;20876;-80
2023/10/19 06:53:38;;;;;;;13.00;11.80;;;;;;;8.20;100.00;98956.72;7398024;19;20363;-79
2023/10/19 06:56:06;;;;;;;12.75;11.63;;;;;;;8.19;100.00;98955.13;7395949;19;20781;-80
2023/10/19 06:58:34;;;;;;;11.85;10.75;;;;;;;8.16;100.00;98962.44;7399035;19;20352;-79
2023/10/19 07:01:05;;;;;;;11.70;10.70;;;;;;;8.16;100.00;98954.50;7395761;19;20363;-79
2023/10/19 07:03:33;;;;;;;10.77;9.80;;;;;;;8.15;100.00;98947.59;7399515;19;20348;-80
2023/10/19 07:06:02;;;;;;;10.50;9.60;;;;;;;8.13;100.00;98948.81;7398260;19;20864;-80
2023/10/19 07:08:34;;;;;;;10.50;9.60;;;;;;;8.16;100.00;98954.50;7394351;19;20342;-79
2023/10/19 07:11:01;;;;;;;10.02;9.13;;;;;;;8.21;100.00;98950.44;7399396;19;20362;-79
2023/10/19 07:13:32;;;;;;;10.20;9.30;;;;;;;8.21;100.00;98948.63;7395225;19;20427;-79
2023/10/19 07:16:00;;;;;;;9.63;8.73;;;;;;;8.23;100.00;98951.06;7395525;19;20424;-79
2023/10/19 07:18:28;;;;;;;9.20;8.40;;;;;;;8.24;100.00;98957.97;7395750;19;20681;-79
2023/10/19 07:21:02;;;;;;;9.10;8.30;;;;;;;8.25;100.00;98959.59;7393694;19;20377;-79
2023/10/19 07:23:31;;;;;;;8.20;7.50;;;;;;;8.27;100.00;98958.38;7395994;19;20327;-79
2023/10/19 07:26:01;;;;;;;7.80;7.18;;;;;;;8.29;100.00;98958.19;7395226;19;20352;-79
2023/10/19 07:28:29;;;;;;;8.07;7.37;;;;;;;8.28;100.00;98964.47;7393444;19;20409;-79
2023/10/19 07:30:59;;;;;;;8.27;7.55;;;;;;;8.28;100.00;98959.19;7392385;19;20353;-79
2023/10/19 07:33:26;;;;;;;8.20;7.50;;;;;;;8.30;100.00;98957.97;7393560;19;20360;-79
2023/10/19 07:35:59;;;;;;;7.53;6.82;;;;;;;8.30;100.00;98963.25;7391366;19;20364;-79
2023/10/19 07:38:28;;;;;;;7.50;6.80;;;;;;;8.30;100.00;98962.44;7393768;19;20365;-80
2023/10/19 07:40:55;;;;;;;7.60;6.90;;;;;;;8.30;100.00;98962.44;7395461;19;20347;-79
2023/10/19 07:43:25;;;;;;;7.22;6.57;;;;;;;8.29;100.00;98960.81;7387989;19;20451;-79
2023/10/19 07:45:52;;;;;;;7.13;6.53;;;;;;;8.31;100.00;98966.72;7388378;19;20991;-79
2023/10/19 07:48:19;;;;;;;6.85;6.25;;;;;;;8.33;100.00;98964.66;7388302;19;20422;-79
2023/10/19 07:50:46;;;;;;;6.93;6.22;;;;;;;8.36;100.00;98964.28;7386394;19;20832;-79
2023/10/19 07:53:13;;;;;;;6.57;5.97;;;;;;;8.40;100.00;98960.22;7388361;19;20376;-79
2023/10/19 07:55:40;;;;;;;6.55;5.95;;;;;;;8.44;100.00;98948.25;7388976;19;20341;-79
2023/10/19 07:58:08;;;;;;;6.13;5.53;;;;;;;8.48;100.00;98944.19;7388831;19;21026;-79
2023/10/19 08:00:35;;;;;;;5.93;5.43;;;;;;;8.54;100.00;98946.00;7393873;19;20920;-79
2023/10/19 08:03:04;;;;;;;6.00;5.47;;;;;;;8.58;100.00;98954.31;7394717;19;20372;-79
2023/10/19 08:05:33;;;;;;;5.80;5.30;;;;;;;8.65;100.00;98955.16;7392838;19;20454;-79
2023/10/19 08:08:03;;;;;;;5.75;5.25;;;;;;;8.69;100.00;98953.72;7393647;19;20344;-79
2023/10/19 08:10:31;;;;;;;6.40;5.80;;;;;;;8.73;100.00;98952.28;7394432;19;20379;-79
2023/10/19 08:12:58;;;;;;;6.13;5.60;;;;;;;8.75;100.00;98958.16;7392135;19;20336;-79
2023/10/19 08:15:28;;;;;;;5.78;5.28;;;;;;;8.82;100.00;98954.69;7398454;19;20353;-79
2023/10/19 08:17:55;;;;;;;5.78;5.28;;;;;;;8.87;100.00;98953.06;7405413;19;20417;-79
2023/10/19 08:20:23;;;;;;;5.78;5.28;;;;;;;8.94;100.00;98959.16;7392656;19;20379;-79
2023/10/19 08:22:53;;;;;;;5.85;5.35;;;;;;;9.02;100.00;98944.91;7390509;19;20374;-79
2023/10/19 08:25:20;;;;;;;5.70;5.20;;;;;;;9.10;100.00;98951.81;7391770;19;20726;-79
2023/10/19 08:27:50;;;;;;;5.93;5.43;;;;;;;9.15;100.00;98946.69;7391351;19;20441;-79
2023/10/19 08:30:18;;;;;;;5.75;5.25;;;;;;;9.19;99.78;98955.84;7389687;19;20423;-79
2023/10/19 08:32:49;;;;;;;5.70;5.20;;;;;;;9.23;99.68;98957.03;7391808;19;20373;-79
2023/10/19 08:35:20;;;;;;;5.45;4.95;;;;;;;9.29;99.89;98956.22;7389978;19;20372;-79
2023/10/19 08:37:48;;;;;;;5.47;4.97;;;;;;;9.33;99.26;98957.41;7389797;19;20324;-79
2023/10/19 08:40:16;;;;;;;5.75;5.20;;;;;;;9.37;99.33;98963.91;7391645;19;20416;-79
2023/10/19 08:42:48;;;;;;;5.68;5.18;;;;;;;9.38;99.14;98965.53;7389879;19;20436;-78
2023/10/19 08:45:16;;;;;;;5.65;5.15;;;;;;;9.40;98.85;98962.69;7393696;19;20372;-79
2023/10/19 08:47:57;;;;;;;5.83;5.30;;;;;;;9.43;98.99;98954.31;7398478;19;20838;-78
2023/10/19 08:50:26;;;;;;;6.00;5.50;;;;;;;9.46;98.75;98955.75;7396473;19;20848;-79
2023/10/19 08:52:54;;;;;;;6.03;5.45;;;;;;;9.48;98.61;98956.31;7398863;19;20348;-79
2023/10/19 08:55:22;;;;;;;5.88;5.38;;;;;;;9.49;98.56;98961.41;7397524;19;20345;-78
2023/10/19 08:58:09;;;;;;;5.70;5.20;;;;;;;9.48;98.21;98966.91;7402228;19;20398;-79
2023/10/19 09:00:56;;;;;;;5.70;5.20;;;;;;;9.48;98.06;98964.25;7398761;19;20369;-79
2023/10/19 09:03:25;;;;;;;6.20;5.70;;;;;;;9.48;98.10;98953.69;7400274;19;20414;-79
2023/10/19 09:05:54;;;;;;;6.50;5.90;;;;;;;9.49;98.28;98953.47;7396401;19;20360;-79
2023/10/19 09:08:22;;;;;;;6.30;5.70;;;;;;;9.52;98.39;98957.53;7401218;19;20904;-79
2023/10/19 09:10:53;;;;;;;6.15;5.65;;;;;;;9.51;97.88;98958.56;7398462;19;20447;-79
2023/10/19 09:13:22;;;;;;;6.35;5.75;;;;;;;9.52;97.93;98955.72;7398333;19;20373;-78
2023/10/19 09:15:55;;;;;;;6.47;5.87;;;;;;;9.55;97.67;98949.19;7396441;19;20364;-78
2023/10/19 09:18:27;;;;;;;6.22;5.63;;;;;;;9.61;98.15;98947.53;7396453;19;20865;-78
2023/10/19 09:21:01;;;;;;;6.43;5.82;;;;;;;9.65;97.97;98938.94;7396183;19;20391;-78
2023/10/19 09:23:30;;;;;;;6.75;6.15;;;;;;;9.73;98.16;98930.75;7394504;19;20498;-79
2023/10/19 09:26:03;;;;;;;6.00;5.50;;;;;;;9.84;98.04;98925.78;7397506;19;20366;-79
2023/10/19 09:28:36;;;;;;;6.30;5.70;;;;;;;9.96;98.21;98929.38;7396042;19;20405;-79
2023/10/19 09:31:04;;;;;;;6.55;5.95;;;;;;;10.05;97.34;98925.47;7397369;19;20340;-78
2023/10/19 09:33:34;;;;;;;6.90;6.30;;;;;;;10.17;97.67;98921.06;7398243;19;20363;-78
2023/10/19 09:36:12;;;;;;;6.88;6.28;;;;;;;10.30;97.33;98920.19;7397265;19;20340;-78
2023/10/19 09:38:48;;;;;;;6.38;5.78;;;;;;;10.47;96.69;98914.34;7395872;19;20337;-78
2023/10/19 09:41:18;;;;;;;5.93;5.38;;;;;;;10.62;96.26;98912.16;7395527;19;20367;-78
2023/10/19 09:43:50;;;;;;;7.93;7.13;;;;;;;10.75;95.98;98924.47;7393329;19;20900;-79
2023/10/19 09:46:22;;;;;;;8.57;7.77;;;;;;;10.88;95.81;98928.84;7395436;19;20372;-78
2023/10/19 09:48:49;;;;;;;6.95;6.25;;;;;;;10.98;94.98;98927.28;7396813;19;20332;-78
2023/10/19 09:51:18;;;;;;;6.05;5.50;;;;;;;11.04;94.51;98920.28;7396336;19;20375;-78
2023/10/19 09:54:11;;;;;;;6.50;5.90;;;;;;;11.05;93.53;98929.06;7396295;19;20348;-78
2023/10/19 09:56:46;;;;;;;5.70;5.10;;;;;;;11.08;93.46;98915.38;7396257;19;20508;-78
2023/10/19 09:59:29;;;;;;;5.57;5.07;;;;;;;11.13;93.33;98918.94;7395248;19;20380;-78
2023/10/19 10:02:17;;;;;;;5.53;5.03;;;;;;;11.25;92.82;98920.88;7394222;19;20385;-78
2023/10/19 10:04:48;;;;;;;5.40;4.90;;;;;;;11.33;92.53;98924.03;7392941;19;20728;-78
2023/10/19 10:07:16;;;;;;;5.30;4.80;;;;;;;11.45;92.37;98929.38;7397297;19;20887;-79
2023/10/19 10:10:04;;;;;;;5.43;4.75;;;;;;;11.55;91.92;98934.19;7398561;19;20349;-82
2023/10/19 10:12:34;;;;;;;5.03;4.63;;;;;;;11.59;91.13;98932.69;7396175;19;20429;-79
2023/10/19 10:15:07;;;;;;;5.32;4.82;;;;;;;11.67;91.10;98932.38;7397464;19;20374;-79
2023/10/19 10:17:37;;;;;;;5.47;4.97;;;;;;;11.67;90.64;98929.72;7394375;19;20352;-79
2023/10/19 10:20:13;;;;;;;5.68;5.18;;;;;;;11.69;90.12;98932.13;7399174;19;20377;-79
2023/10/19 10:22:44;;;;;;;5.40;4.90;;;;;;;11.67;90.11;98929.72;7399144;19;20390;-79
2023/10/19 10:25:30;;;;;;;5.57;5.07;;;;;;;11.62;89.45;98929.59;7394911;19;20440;-79
2023/10/19 10:27:58;;;;;;;5.47;4.97;;;;;;;11.66;90.40;98920.13;7396303;19;20435;-78
2023/10/19 10:30:25;;;;;;;5.78;5.13;;;;;;;11.73;89.87;98912.06;7387764;19;20923;-79
2023/10/19 10:32:55;;;;;;;5.45;4.95;;;;;;;11.82;90.25;98903.56;7392180;19;20380;-78
2023/10/19 10:35:41;;;;;;;5.50;5.00;;;;;;;11.89;89.70;98905.34;7392953;19;20361;-78
2023/10/19 10:38:11;;;;;;;5.28;4.78;;;;;;;11.91;89.54;98898.75;7396916;19;20891;-77
2023/10/19 10:40:47;;;;;;;5.53;4.55;;;;;;;11.97;89.48;98892.53;7393439;19;20380;-78
2023/10/19 10:43:15;;;;;;;5.13;4.70;;;;;;;12.00;89.13;98896.56;7395070;19;20358;-78
2023/10/19 10:45:42;;;;;;;4.97;4.57;;;;;;;11.98;88.38;98893.34;7393383;19;20356;-78
2023/10/19 10:48:17;;;;;;;5.10;4.60;;;;;;;11.91;88.35;98882.81;7396722;19;20839;-77
2023/10/19 10:50:45;;;;;;;5.40;4.90;;;;;;;11.80;88.39;98881.72;7393691;19;20375;-77
2023/10/19 10:53:15;;;;;;;5.10;4.60;;;;;;;11.74;88.73;98872.00;7393600;19;20438;-77
2023/10/19 10:55:42;;;;;;;5.15;4.60;;;;;;;11.71;89.29;98875.13;7393553;19;20348;-77
2023/10/19 10:58:15;;;;;;;5.97;4.70;;;;;;;11.70;89.46;98876.16;7394387;19;20360;-77
2023/10/19 11:00:43;;;;;;;4.78;4.38;;;;;;;11.68;89.58;98878.22;7393200;19;20444;-77
2023/10/19 11:03:10;;;;;;;5.60;5.10;;;;;;;11.67;89.90;98873.97;7388899;19;20476;-77
2023/10/19 11:05:37;;;;;;;5.50;5.00;;;;;;;11.67;90.05;98876.63;7391646;19;20408;-77
2023/10/19 11:08:13;;;;;;;6.05;5.15;;;;;;;11.63;89.68;98876.25;7392651;19;20369;-80
2023/10/19 11:10:46;;;;;;;5.00;4.50;;;;;;;11.55;89.43;98883.72;7393133;19;20494;-76
2023/10/19 11:13:17;;;;;;;4.93;4.40;;;;;;;11.49;89.82;98879.31;7393813;19;20895;-76
2023/10/19 11:15:56;;;;;;;5.00;4.50;;;;;;;11.48;90.15;98867.09;7392097;19;20376;-75
2023/10/19 11:18:29;;;;;;;5.10;4.60;;;;;;;11.46;90.34;98862.00;7392001;19;20357;-75
2023/10/19 11:20:59;;;;;;;5.22;4.63;;;;;;;11.48;90.81;98862.59;7394074;19;20378;-75
2023/10/19 11:23:41;;;;;;;5.50;4.43;;;;;;;11.52;90.59;98865.59;7393432;19;20431;-75
2023/10/19 11:26:10;;;;;;;4.97;4.47;;;;;;;11.52;90.45;98868.25;7398458;19;20365;-75
2023/10/19 11:28:43;;;;;;;5.53;4.72;;;;;;;11.53;90.58;98868.00;7392167;19;20947;-75
2023/10/19 11:31:23;;;;;;;5.32;4.82;;;;;;;11.53;90.81;98869.88;7390802;19;20867;-75
2023/10/19 11:33:53;;;;;;;5.63;4.45;;;;;;;11.57;90.99;98869.19;7394047;19;20360;-75
2023/10/19 11:36:21;;;;;;;6.03;4.65;;;;;;;11.63;91.07;98864.81;7390556;19;20345;-76
2023/10/19 11:38:53;;;;;;;5.63;4.70;;;;;;;11.63;90.93;98860.31;7395212;19;20360;-76
2023/10/19 11:41:21;;;;;;;6.00;5.07;;;;;;;11.66;91.04;98874.97;7393246;19;20379;-75
2023/10/19 11:43:49;;;;;;;6.43;5.63;;;;;;;11.68;90.97;98866.78;7390878;19;20371;-75
2023/10/19 11:46:25;;;;;;;6.55;5.65;;;;;;;11.70;91.14;98870.84;7392345;19;20358;-75
2023/10/19 11:48:52;;;;;;;6.32;5.18;;;;;;;11.73;91.17;98865.09;7393053;19;20372;-76